Tonypandy, United Kingdom
Current Conditions -  °F | °C
As of 6:50 PM on Tuesday 21 Oct 2014 (Local Time) from EGDX Reporting Station
Clear Clear  
Wind Chill: 10°   Ceiling: Unl
Heat Index: 10°   Visibility: 6mi
Dew Point:   Wind: 20mph
Humidity: 66%   Direction: 300°WNW
Pressure: 30.09"   Gusts: NA
Location:  51.62°N, 3.45°W
Report Text: EGDX 211750Z AUTO 30017KT 9999 NCD 10/04 Q1019
Loading
Personal Weather Stations






























Interactive Weather Map
Tropical Storm Tracking
New forecast layout! Learn more

10-Day Weather Forecast

Advertisements
Track Severe Weather on mobile